sensor_id;sensor_type;location;lat;lon;timestamp;temperature;humidity
11666;DHT22;5889;51.350;6.708;2024-02-04T00:01:32;10.60;99.90
11666;DHT22;5889;51.350;6.708;2024-02-04T00:04:00;10.60;99.90
11666;DHT22;5889;51.350;6.708;2024-02-04T00:06:27;10.60;99.90
11666;DHT22;5889;51.350;6.708;2024-02-04T00:08:54;10.60;99.90
11666;DHT22;5889;51.350;6.708;2024-02-04T00:11:21;10.60;99.90
11666;DHT22;5889;51.350;6.708;2024-02-04T00:13:48;10.60;99.90
11666;DHT22;5889;51.350;6.708;2024-02-04T00:16:15;10.60;99.90
11666;DHT22;5889;51.350;6.708;2024-02-04T00:18:42;10.50;99.90
11666;DHT22;5889;51.350;6.708;2024-02-04T00:21:11;10.50;99.90
11666;DHT22;5889;51.350;6.708;2024-02-04T00:23:38;10.50;99.90
11666;DHT22;5889;51.350;6.708;2024-02-04T00:26:05;10.50;99.90
11666;DHT22;5889;51.350;6.708;2024-02-04T00:28:32;10.50;99.90
11666;DHT22;5889;51.350;6.708;2024-02-04T00:30:59;10.50;99.90
11666;DHT22;5889;51.350;6.708;2024-02-04T00:33:26;10.40;99.90
11666;DHT22;5889;51.350;6.708;2024-02-04T00:35:52;10.40;99.90
11666;DHT22;5889;51.350;6.708;2024-02-04T00:38:21;10.40;99.90
11666;DHT22;5889;51.350;6.708;2024-02-04T00:40:47;10.40;99.90
11666;DHT22;5889;51.350;6.708;2024-02-04T00:43:14;10.40;99.90
11666;DHT22;5889;51.350;6.708;2024-02-04T00:45:44;10.40;99.90
11666;DHT22;5889;51.350;6.708;2024-02-04T00:48:11;10.40;99.90
11666;DHT22;5889;51.350;6.708;2024-02-04T00:50:38;10.40;99.90
11666;DHT22;5889;51.350;6.708;2024-02-04T00:53:05;10.30;99.90
11666;DHT22;5889;51.350;6.708;2024-02-04T00:55:33;10.30;99.90
11666;DHT22;5889;51.350;6.708;2024-02-04T00:58:00;10.40;99.90
11666;DHT22;5889;51.350;6.708;2024-02-04T01:00:28;10.30;99.90
11666;DHT22;5889;51.350;6.708;2024-02-04T01:02:54;10.40;99.90
11666;DHT22;5889;51.350;6.708;2024-02-04T01:05:21;10.30;99.90
11666;DHT22;5889;51.350;6.708;2024-02-04T01:07:48;10.30;99.90
11666;DHT22;5889;51.350;6.708;2024-02-04T01:10:15;10.40;99.90
11666;DHT22;5889;51.350;6.708;2024-02-04T01:12:43;10.40;99.90
11666;DHT22;5889;51.350;6.708;2024-02-04T01:15:10;10.40;99.90
11666;DHT22;5889;51.350;6.708;2024-02-04T01:17:38;10.30;99.90
11666;DHT22;5889;51.350;6.708;2024-02-04T01:20:05;10.40;99.90
11666;DHT22;5889;51.350;6.708;2024-02-04T01:22:32;10.40;99.90
11666;DHT22;5889;51.350;6.708;2024-02-04T01:24:59;10.40;99.90
11666;DHT22;5889;51.350;6.708;2024-02-04T01:27:26;10.40;99.90
11666;DHT22;5889;51.350;6.708;2024-02-04T01:29:54;10.40;99.90
11666;DHT22;5889;51.350;6.708;2024-02-04T01:32:22;10.40;99.90
11666;DHT22;5889;51.350;6.708;2024-02-04T01:34:49;10.40;99.90
11666;DHT22;5889;51.350;6.708;2024-02-04T01:37:15;10.50;99.90
11666;DHT22;5889;51.350;6.708;2024-02-04T01:39:42;10.40;99.90
11666;DHT22;5889;51.350;6.708;2024-02-04T01:42:09;10.50;99.90
11666;DHT22;5889;51.350;6.708;2024-02-04T01:44:36;10.50;99.90
11666;DHT22;5889;51.350;6.708;2024-02-04T01:47:05;10.50;99.90
11666;DHT22;5889;51.350;6.708;2024-02-04T01:49:35;10.50;99.90
11666;DHT22;5889;51.350;6.708;2024-02-04T01:52:02;10.50;99.90
11666;DHT22;5889;51.350;6.708;2024-02-04T01:54:31;10.50;99.90
11666;DHT22;5889;51.350;6.708;2024-02-04T01:56:59;10.50;99.90
11666;DHT22;5889;51.350;6.708;2024-02-04T01:59:27;10.50;99.90
11666;DHT22;5889;51.350;6.708;2024-02-04T02:01:56;10.40;99.90
11666;DHT22;5889;51.350;6.708;2024-02-04T02:04:24;10.40;99.90
11666;DHT22;5889;51.350;6.708;2024-02-04T02:06:52;10.40;99.90
11666;DHT22;5889;51.350;6.708;2024-02-04T02:09:19;10.40;99.90
11666;DHT22;5889;51.350;6.708;2024-02-04T02:11:50;10.50;99.90
11666;DHT22;5889;51.350;6.708;2024-02-04T02:14:23;10.50;99.90
11666;DHT22;5889;51.350;6.708;2024-02-04T02:16:51;10.50;99.90
11666;DHT22;5889;51.350;6.708;2024-02-04T02:19:34;10.50;99.90
11666;DHT22;5889;51.350;6.708;2024-02-04T02:22:15;10.50;99.90
11666;DHT22;5889;51.350;6.708;2024-02-04T02:24:47;10.50;99.90
11666;DHT22;5889;51.350;6.708;2024-02-04T02:27:14;10.50;99.90
11666;DHT22;5889;51.350;6.708;2024-02-04T02:29:41;10.50;99.90
11666;DHT22;5889;51.350;6.708;2024-02-04T02:32:08;10.50;99.90
11666;DHT22;5889;51.350;6.708;2024-02-04T02:34:36;10.50;99.90
11666;DHT22;5889;51.350;6.708;2024-02-04T02:37:08;10.50;99.90
11666;DHT22;5889;51.350;6.708;2024-02-04T02:39:42;10.50;99.90
11666;DHT22;5889;51.350;6.708;2024-02-04T02:42:13;10.50;99.90
11666;DHT22;5889;51.350;6.708;2024-02-04T02:44:43;10.50;99.90
11666;DHT22;5889;51.350;6.708;2024-02-04T02:47:10;10.50;99.90
11666;DHT22;5889;51.350;6.708;2024-02-04T02:49:38;10.50;99.90
11666;DHT22;5889;51.350;6.708;2024-02-04T02:52:05;10.50;99.90
11666;DHT22;5889;51.350;6.708;2024-02-04T02:54:32;10.50;99.90
11666;DHT22;5889;51.350;6.708;2024-02-04T02:56:59;10.50;99.90
11666;DHT22;5889;51.350;6.708;2024-02-04T02:59:27;10.50;99.90
11666;DHT22;5889;51.350;6.708;2024-02-04T03:01:54;10.50;99.90
11666;DHT22;5889;51.350;6.708;2024-02-04T03:04:21;10.50;99.90
11666;DHT22;5889;51.350;6.708;2024-02-04T03:06:48;10.50;99.90
11666;DHT22;5889;51.350;6.708;2024-02-04T03:09:15;10.60;99.90
11666;DHT22;5889;51.350;6.708;2024-02-04T03:11:42;10.60;99.90
11666;DHT22;5889;51.350;6.708;2024-02-04T03:14:09;10.60;99.90
11666;DHT22;5889;51.350;6.708;2024-02-04T03:16:37;10.60;99.90
11666;DHT22;5889;51.350;6.708;2024-02-04T03:19:05;10.60;99.90
11666;DHT22;5889;51.350;6.708;2024-02-04T03:21:32;10.60;99.90
11666;DHT22;5889;51.350;6.708;2024-02-04T03:23:59;10.60;99.90
11666;DHT22;5889;51.350;6.708;2024-02-04T03:26:26;10.60;99.90
11666;DHT22;5889;51.350;6.708;2024-02-04T03:28:53;10.60;99.90
11666;DHT22;5889;51.350;6.708;2024-02-04T03:31:20;10.60;99.90
11666;DHT22;5889;51.350;6.708;2024-02-04T03:33:49;10.70;99.90
11666;DHT22;5889;51.350;6.708;2024-02-04T03:36:22;10.60;99.90
11666;DHT22;5889;51.350;6.708;2024-02-04T03:38:49;10.60;99.90
11666;DHT22;5889;51.350;6.708;2024-02-04T03:41:16;10.70;99.90
11666;DHT22;5889;51.350;6.708;2024-02-04T03:43:44;10.70;99.90
11666;DHT22;5889;51.350;6.708;2024-02-04T03:46:13;10.70;99.90
11666;DHT22;5889;51.350;6.708;2024-02-04T03:48:40;10.70;99.90
11666;DHT22;5889;51.350;6.708;2024-02-04T03:51:14;10.70;99.90
11666;DHT22;5889;51.350;6.708;2024-02-04T03:53:41;10.70;99.90
11666;DHT22;5889;51.350;6.708;2024-02-04T03:56:08;10.70;99.90
11666;DHT22;5889;51.350;6.708;2024-02-04T03:58:35;10.70;99.90
11666;DHT22;5889;51.350;6.708;2024-02-04T04:01:02;10.70;99.90
11666;DHT22;5889;51.350;6.708;2024-02-04T04:03:29;10.70;99.90
11666;DHT22;5889;51.350;6.708;2024-02-04T04:05:56;10.70;99.90
11666;DHT22;5889;51.350;6.708;2024-02-04T04:08:24;10.80;99.90
11666;DHT22;5889;51.350;6.708;2024-02-04T04:10:51;10.70;99.90
11666;DHT22;5889;51.350;6.708;2024-02-04T04:13:18;10.70;99.90
11666;DHT22;5889;51.350;6.708;2024-02-04T04:15:45;10.70;99.90
11666;DHT22;5889;51.350;6.708;2024-02-04T04:18:12;10.70;99.90
11666;DHT22;5889;51.350;6.708;2024-02-04T04:20:39;10.70;99.90
11666;DHT22;5889;51.350;6.708;2024-02-04T04:23:06;10.70;99.90
11666;DHT22;5889;51.350;6.708;2024-02-04T04:25:34;10.70;99.90
11666;DHT22;5889;51.350;6.708;2024-02-04T04:28:01;10.70;99.90
11666;DHT22;5889;51.350;6.708;2024-02-04T04:30:28;10.70;99.90
11666;DHT22;5889;51.350;6.708;2024-02-04T04:32:56;10.70;99.90
11666;DHT22;5889;51.350;6.708;2024-02-04T04:35:24;10.70;99.90
11666;DHT22;5889;51.350;6.708;2024-02-04T04:37:52;10.70;99.90
11666;DHT22;5889;51.350;6.708;2024-02-04T04:40:19;10.70;99.90
11666;DHT22;5889;51.350;6.708;2024-02-04T04:42:47;10.70;99.90
11666;DHT22;5889;51.350;6.708;2024-02-04T04:45:14;10.70;99.90
11666;DHT22;5889;51.350;6.708;2024-02-04T04:47:41;10.70;99.90
11666;DHT22;5889;51.350;6.708;2024-02-04T04:50:08;10.70;99.90
11666;DHT22;5889;51.350;6.708;2024-02-04T04:52:35;10.70;99.90
11666;DHT22;5889;51.350;6.708;2024-02-04T04:55:03;10.70;99.90
11666;DHT22;5889;51.350;6.708;2024-02-04T04:57:30;10.80;99.90
11666;DHT22;5889;51.350;6.708;2024-02-04T04:59:58;10.70;99.90
11666;DHT22;5889;51.350;6.708;2024-02-04T05:02:29;10.70;99.90
11666;DHT22;5889;51.350;6.708;2024-02-04T05:04:56;10.70;99.90
11666;DHT22;5889;51.350;6.708;2024-02-04T05:07:23;10.70;99.90
11666;DHT22;5889;51.350;6.708;2024-02-04T05:09:50;10.70;99.90
11666;DHT22;5889;51.350;6.708;2024-02-04T05:12:17;10.80;99.90
11666;DHT22;5889;51.350;6.708;2024-02-04T05:14:44;10.80;99.90
11666;DHT22;5889;51.350;6.708;2024-02-04T05:17:12;10.80;99.90
11666;DHT22;5889;51.350;6.708;2024-02-04T05:19:41;10.80;99.90
11666;DHT22;5889;51.350;6.708;2024-02-04T05:22:08;10.80;99.90
11666;DHT22;5889;51.350;6.708;2024-02-04T05:24:35;10.80;99.90
11666;DHT22;5889;51.350;6.708;2024-02-04T05:27:02;10.80;99.90
11666;DHT22;5889;51.350;6.708;2024-02-04T05:29:30;10.80;99.90
11666;DHT22;5889;51.350;6.708;2024-02-04T05:31:57;10.80;99.90
11666;DHT22;5889;51.350;6.708;2024-02-04T05:34:25;10.80;99.90
11666;DHT22;5889;51.350;6.708;2024-02-04T05:36:52;10.80;99.90
11666;DHT22;5889;51.350;6.708;2024-02-04T05:39:19;10.80;99.90
11666;DHT22;5889;51.350;6.708;2024-02-04T05:41:45;10.80;99.90
11666;DHT22;5889;51.350;6.708;2024-02-04T05:44:12;10.80;99.90
11666;DHT22;5889;51.350;6.708;2024-02-04T05:46:39;10.80;99.90
11666;DHT22;5889;51.350;6.708;2024-02-04T05:49:06;10.80;99.90
11666;DHT22;5889;51.350;6.708;2024-02-04T05:51:37;10.80;99.90
11666;DHT22;5889;51.350;6.708;2024-02-04T05:54:05;10.80;99.90
11666;DHT22;5889;51.350;6.708;2024-02-04T05:56:32;10.80;99.90
11666;DHT22;5889;51.350;6.708;2024-02-04T05:58:59;10.80;99.90
11666;DHT22;5889;51.350;6.708;2024-02-04T06:01:26;10.90;99.90
11666;DHT22;5889;51.350;6.708;2024-02-04T06:03:53;10.80;99.90
11666;DHT22;5889;51.350;6.708;2024-02-04T06:06:20;10.80;99.90
11666;DHT22;5889;51.350;6.708;2024-02-04T06:08:48;10.80;99.90
11666;DHT22;5889;51.350;6.708;2024-02-04T06:11:15;10.80;99.90
11666;DHT22;5889;51.350;6.708;2024-02-04T06:13:43;10.80;99.90
11666;DHT22;5889;51.350;6.708;2024-02-04T06:16:11;10.80;99.90
11666;DHT22;5889;51.350;6.708;2024-02-04T06:18:38;10.80;99.90
11666;DHT22;5889;51.350;6.708;2024-02-04T06:21:05;10.80;99.90
11666;DHT22;5889;51.350;6.708;2024-02-04T06:23:33;10.80;99.90
11666;DHT22;5889;51.350;6.708;2024-02-04T06:26:01;10.80;99.90
11666;DHT22;5889;51.350;6.708;2024-02-04T06:28:28;10.80;99.90
11666;DHT22;5889;51.350;6.708;2024-02-04T06:30:55;10.80;99.90
11666;DHT22;5889;51.350;6.708;2024-02-04T06:33:22;10.80;99.90
11666;DHT22;5889;51.350;6.708;2024-02-04T06:35:50;10.70;99.90
11666;DHT22;5889;51.350;6.708;2024-02-04T06:38:17;10.80;99.90
11666;DHT22;5889;51.350;6.708;2024-02-04T06:40:44;10.70;99.90
11666;DHT22;5889;51.350;6.708;2024-02-04T06:43:12;10.70;99.90
11666;DHT22;5889;51.350;6.708;2024-02-04T06:45:40;10.70;99.90
11666;DHT22;5889;51.350;6.708;2024-02-04T06:48:07;10.70;99.90
11666;DHT22;5889;51.350;6.708;2024-02-04T06:50:35;10.70;99.90
11666;DHT22;5889;51.350;6.708;2024-02-04T06:53:02;10.70;99.90
11666;DHT22;5889;51.350;6.708;2024-02-04T06:55:29;10.70;99.90
11666;DHT22;5889;51.350;6.708;2024-02-04T06:57:56;10.70;99.90
11666;DHT22;5889;51.350;6.708;2024-02-04T07:00:24;10.70;99.90
11666;DHT22;5889;51.350;6.708;2024-02-04T07:02:51;10.70;99.90
11666;DHT22;5889;51.350;6.708;2024-02-04T07:05:18;10.70;99.90
11666;DHT22;5889;51.350;6.708;2024-02-04T07:07:47;10.70;99.90
11666;DHT22;5889;51.350;6.708;2024-02-04T07:10:14;10.70;99.90
11666;DHT22;5889;51.350;6.708;2024-02-04T07:12:40;10.70;99.90
11666;DHT22;5889;51.350;6.708;2024-02-04T07:15:07;10.80;99.90
11666;DHT22;5889;51.350;6.708;2024-02-04T07:17:36;10.70;99.90
11666;DHT22;5889;51.350;6.708;2024-02-04T07:20:04;10.70;99.90
11666;DHT22;5889;51.350;6.708;2024-02-04T07:22:31;10.70;99.90
11666;DHT22;5889;51.350;6.708;2024-02-04T07:24:58;10.80;99.90
11666;DHT22;5889;51.350;6.708;2024-02-04T07:27:25;10.80;99.90
11666;DHT22;5889;51.350;6.708;2024-02-04T07:29:52;10.70;99.90
11666;DHT22;5889;51.350;6.708;2024-02-04T07:32:20;10.80;99.90
11666;DHT22;5889;51.350;6.708;2024-02-04T07:34:50;10.80;99.90
11666;DHT22;5889;51.350;6.708;2024-02-04T07:37:17;10.80;99.90
11666;DHT22;5889;51.350;6.708;2024-02-04T07:39:45;10.80;99.90
11666;DHT22;5889;51.350;6.708;2024-02-04T07:42:12;10.80;99.90
11666;DHT22;5889;51.350;6.708;2024-02-04T07:44:39;10.80;99.90
11666;DHT22;5889;51.350;6.708;2024-02-04T07:47:05;10.80;99.90
11666;DHT22;5889;51.350;6.708;2024-02-04T07:49:32;10.80;99.90
11666;DHT22;5889;51.350;6.708;2024-02-04T07:52:15;10.80;99.90
11666;DHT22;5889;51.350;6.708;2024-02-04T07:54:42;10.80;99.90
11666;DHT22;5889;51.350;6.708;2024-02-04T07:57:09;10.80;99.90
11666;DHT22;5889;51.350;6.708;2024-02-04T07:59:36;10.80;99.90
11666;DHT22;5889;51.350;6.708;2024-02-04T08:02:03;10.80;99.90
11666;DHT22;5889;51.350;6.708;2024-02-04T08:04:32;10.80;99.90
11666;DHT22;5889;51.350;6.708;2024-02-04T08:06:59;10.80;99.90
11666;DHT22;5889;51.350;6.708;2024-02-04T08:09:27;10.80;99.90
11666;DHT22;5889;51.350;6.708;2024-02-04T08:11:54;10.80;99.90
11666;DHT22;5889;51.350;6.708;2024-02-04T08:14:21;10.80;99.90
11666;DHT22;5889;51.350;6.708;2024-02-04T08:16:48;10.80;99.90
11666;DHT22;5889;51.350;6.708;2024-02-04T08:19:15;10.80;99.90
11666;DHT22;5889;51.350;6.708;2024-02-04T08:21:42;10.80;99.90
11666;DHT22;5889;51.350;6.708;2024-02-04T08:24:09;10.80;99.90
11666;DHT22;5889;51.350;6.708;2024-02-04T08:26:37;10.80;99.90
11666;DHT22;5889;51.350;6.708;2024-02-04T08:29:04;10.80;99.90
11666;DHT22;5889;51.350;6.708;2024-02-04T08:31:32;10.90;99.90
11666;DHT22;5889;51.350;6.708;2024-02-04T08:33:59;10.90;99.90
11666;DHT22;5889;51.350;6.708;2024-02-04T08:36:26;10.90;99.90
11666;DHT22;5889;51.350;6.708;2024-02-04T08:38:53;10.90;99.90
11666;DHT22;5889;51.350;6.708;2024-02-04T08:41:20;10.90;99.90
11666;DHT22;5889;51.350;6.708;2024-02-04T08:43:48;10.90;99.90
11666;DHT22;5889;51.350;6.708;2024-02-04T08:46:15;11.00;99.90
11666;DHT22;5889;51.350;6.708;2024-02-04T08:48:42;11.00;99.90
11666;DHT22;5889;51.350;6.708;2024-02-04T08:51:12;11.00;99.90
11666;DHT22;5889;51.350;6.708;2024-02-04T08:53:41;11.00;99.90
11666;DHT22;5889;51.350;6.708;2024-02-04T08:56:08;11.00;99.90
11666;DHT22;5889;51.350;6.708;2024-02-04T08:58:35;11.00;99.90
11666;DHT22;5889;51.350;6.708;2024-02-04T09:01:04;11.00;99.90
11666;DHT22;5889;51.350;6.708;2024-02-04T09:03:32;11.10;99.90
11666;DHT22;5889;51.350;6.708;2024-02-04T09:05:59;11.10;99.90
11666;DHT22;5889;51.350;6.708;2024-02-04T09:08:26;11.10;99.90
11666;DHT22;5889;51.350;6.708;2024-02-04T09:10:53;11.10;99.90
11666;DHT22;5889;51.350;6.708;2024-02-04T09:13:20;11.10;99.90
11666;DHT22;5889;51.350;6.708;2024-02-04T09:15:48;11.10;99.90
11666;DHT22;5889;51.350;6.708;2024-02-04T09:18:16;11.20;99.90
11666;DHT22;5889;51.350;6.708;2024-02-04T09:20:43;11.20;99.90
11666;DHT22;5889;51.350;6.708;2024-02-04T09:23:10;11.20;99.90
11666;DHT22;5889;51.350;6.708;2024-02-04T09:25:37;11.20;99.90
11666;DHT22;5889;51.350;6.708;2024-02-04T09:28:04;11.30;99.90
11666;DHT22;5889;51.350;6.708;2024-02-04T09:30:31;11.30;99.90
11666;DHT22;5889;51.350;6.708;2024-02-04T09:32:58;11.30;99.90
11666;DHT22;5889;51.350;6.708;2024-02-04T09:35:27;11.30;99.90
11666;DHT22;5889;51.350;6.708;2024-02-04T09:37:54;11.30;99.90
11666;DHT22;5889;51.350;6.708;2024-02-04T09:40:21;11.30;99.90
11666;DHT22;5889;51.350;6.708;2024-02-04T09:42:48;11.30;99.90
11666;DHT22;5889;51.350;6.708;2024-02-04T09:45:17;11.30;99.90
11666;DHT22;5889;51.350;6.708;2024-02-04T09:47:45;11.30;99.90
11666;DHT22;5889;51.350;6.708;2024-02-04T09:50:13;11.30;99.90
11666;DHT22;5889;51.350;6.708;2024-02-04T09:52:47;11.30;99.90
11666;DHT22;5889;51.350;6.708;2024-02-04T09:55:15;11.30;99.90
11666;DHT22;5889;51.350;6.708;2024-02-04T09:57:44;11.30;99.90
11666;DHT22;5889;51.350;6.708;2024-02-04T10:00:12;11.30;99.90
11666;DHT22;5889;51.350;6.708;2024-02-04T10:02:41;11.30;99.90
11666;DHT22;5889;51.350;6.708;2024-02-04T10:05:08;11.30;99.90
11666;DHT22;5889;51.350;6.708;2024-02-04T10:07:36;11.30;99.90
11666;DHT22;5889;51.350;6.708;2024-02-04T10:10:06;11.30;99.90
11666;DHT22;5889;51.350;6.708;2024-02-04T10:12:33;11.30;99.90
11666;DHT22;5889;51.350;6.708;2024-02-04T10:15:01;11.30;99.90
11666;DHT22;5889;51.350;6.708;2024-02-04T10:17:30;11.40;99.90
11666;DHT22;5889;51.350;6.708;2024-02-04T10:19:57;11.40;99.90
11666;DHT22;5889;51.350;6.708;2024-02-04T10:22:26;11.40;99.90
11666;DHT22;5889;51.350;6.708;2024-02-04T10:24:53;11.40;99.90
11666;DHT22;5889;51.350;6.708;2024-02-04T10:27:22;11.40;99.90
11666;DHT22;5889;51.350;6.708;2024-02-04T10:29:48;11.40;99.90
11666;DHT22;5889;51.350;6.708;2024-02-04T10:32:20;11.40;99.90
11666;DHT22;5889;51.350;6.708;2024-02-04T10:34:48;11.50;99.90
11666;DHT22;5889;51.350;6.708;2024-02-04T10:37:15;11.50;99.90
11666;DHT22;5889;51.350;6.708;2024-02-04T10:39:42;11.50;99.90
11666;DHT22;5889;51.350;6.708;2024-02-04T10:42:10;11.50;99.90
11666;DHT22;5889;51.350;6.708;2024-02-04T10:44:42;11.40;99.90
11666;DHT22;5889;51.350;6.708;2024-02-04T10:47:17;11.40;99.90
11666;DHT22;5889;51.350;6.708;2024-02-04T10:49:50;11.30;99.90
11666;DHT22;5889;51.350;6.708;2024-02-04T10:52:18;11.20;99.90
11666;DHT22;5889;51.350;6.708;2024-02-04T10:54:46;11.30;99.90
11666;DHT22;5889;51.350;6.708;2024-02-04T10:57:19;11.30;99.90
11666;DHT22;5889;51.350;6.708;2024-02-04T10:59:48;11.30;99.90
11666;DHT22;5889;51.350;6.708;2024-02-04T11:02:16;11.30;99.90
11666;DHT22;5889;51.350;6.708;2024-02-04T11:04:43;11.30;99.90
11666;DHT22;5889;51.350;6.708;2024-02-04T11:07:13;11.30;99.90
11666;DHT22;5889;51.350;6.708;2024-02-04T11:09:40;11.30;99.90
11666;DHT22;5889;51.350;6.708;2024-02-04T11:12:11;11.40;99.90
11666;DHT22;5889;51.350;6.708;2024-02-04T11:14:41;11.40;99.90
11666;DHT22;5889;51.350;6.708;2024-02-04T11:17:24;11.50;99.90
11666;DHT22;5889;51.350;6.708;2024-02-04T11:20:10;11.50;99.90
11666;DHT22;5889;51.350;6.708;2024-02-04T11:23:10;11.50;99.90
11666;DHT22;5889;51.350;6.708;2024-02-04T11:25:44;11.50;99.90
11666;DHT22;5889;51.350;6.708;2024-02-04T11:28:12;11.50;99.90
11666;DHT22;5889;51.350;6.708;2024-02-04T11:30:39;11.50;99.90
11666;DHT22;5889;51.350;6.708;2024-02-04T11:33:09;11.50;99.90
11666;DHT22;5889;51.350;6.708;2024-02-04T11:35:37;11.50;99.90
11666;DHT22;5889;51.350;6.708;2024-02-04T11:38:04;11.50;99.90
11666;DHT22;5889;51.350;6.708;2024-02-04T11:40:33;11.60;99.90
11666;DHT22;5889;51.350;6.708;2024-02-04T11:43:09;11.60;99.90
11666;DHT22;5889;51.350;6.708;2024-02-04T11:45:40;11.50;99.90
11666;DHT22;5889;51.350;6.708;2024-02-04T11:48:09;11.60;99.90
11666;DHT22;5889;51.350;6.708;2024-02-04T11:50:37;11.60;99.90
11666;DHT22;5889;51.350;6.708;2024-02-04T11:53:08;11.70;99.90
11666;DHT22;5889;51.350;6.708;2024-02-04T11:55:36;11.60;99.90
11666;DHT22;5889;51.350;6.708;2024-02-04T11:58:05;11.70;99.90
11666;DHT22;5889;51.350;6.708;2024-02-04T12:00:32;11.70;99.90
11666;DHT22;5889;51.350;6.708;2024-02-04T12:03:00;11.70;99.90
11666;DHT22;5889;51.350;6.708;2024-02-04T12:05:31;11.70;99.90
11666;DHT22;5889;51.350;6.708;2024-02-04T12:08:00;11.70;99.90
11666;DHT22;5889;51.350;6.708;2024-02-04T12:10:28;11.70;99.90
11666;DHT22;5889;51.350;6.708;2024-02-04T12:12:56;11.70;99.90
11666;DHT22;5889;51.350;6.708;2024-02-04T12:15:23;11.70;99.90
11666;DHT22;5889;51.350;6.708;2024-02-04T12:17:50;11.70;99.90
11666;DHT22;5889;51.350;6.708;2024-02-04T12:20:17;11.70;99.90
11666;DHT22;5889;51.350;6.708;2024-02-04T12:22:46;11.70;99.90
11666;DHT22;5889;51.350;6.708;2024-02-04T12:25:14;11.70;99.90
11666;DHT22;5889;51.350;6.708;2024-02-04T12:27:41;11.70;99.90
11666;DHT22;5889;51.350;6.708;2024-02-04T12:30:09;11.70;99.90
11666;DHT22;5889;51.350;6.708;2024-02-04T12:32:36;11.60;99.90
11666;DHT22;5889;51.350;6.708;2024-02-04T12:35:05;11.70;99.90
11666;DHT22;5889;51.350;6.708;2024-02-04T12:37:33;11.70;99.90
11666;DHT22;5889;51.350;6.708;2024-02-04T12:40:01;11.60;99.90
11666;DHT22;5889;51.350;6.708;2024-02-04T12:42:28;11.60;99.90
11666;DHT22;5889;51.350;6.708;2024-02-04T12:44:57;11.60;99.90
11666;DHT22;5889;51.350;6.708;2024-02-04T12:47:24;11.70;99.90
11666;DHT22;5889;51.350;6.708;2024-02-04T12:49:58;11.70;99.90
11666;DHT22;5889;51.350;6.708;2024-02-04T12:52:26;11.70;99.90
11666;DHT22;5889;51.350;6.708;2024-02-04T12:54:53;11.70;99.90
11666;DHT22;5889;51.350;6.708;2024-02-04T12:57:24;11.70;99.90
11666;DHT22;5889;51.350;6.708;2024-02-04T12:59:51;11.70;99.90
11666;DHT22;5889;51.350;6.708;2024-02-04T13:02:18;11.70;99.90
11666;DHT22;5889;51.350;6.708;2024-02-04T13:04:47;11.60;99.90
11666;DHT22;5889;51.350;6.708;2024-02-04T13:07:14;11.60;99.90
11666;DHT22;5889;51.350;6.708;2024-02-04T13:09:42;11.60;99.90
11666;DHT22;5889;51.350;6.708;2024-02-04T13:12:10;11.60;99.90
11666;DHT22;5889;51.350;6.708;2024-02-04T13:14:39;11.60;99.90
11666;DHT22;5889;51.350;6.708;2024-02-04T13:17:06;11.50;99.90
11666;DHT22;5889;51.350;6.708;2024-02-04T13:19:33;11.60;99.90
11666;DHT22;5889;51.350;6.708;2024-02-04T13:22:01;11.50;99.90
11666;DHT22;5889;51.350;6.708;2024-02-04T13:24:29;11.50;99.90
11666;DHT22;5889;51.350;6.708;2024-02-04T13:26:56;11.50;99.90
11666;DHT22;5889;51.350;6.708;2024-02-04T13:29:24;11.50;99.90
11666;DHT22;5889;51.350;6.708;2024-02-04T13:31:52;11.40;99.90
11666;DHT22;5889;51.350;6.708;2024-02-04T13:34:19;11.50;99.90
11666;DHT22;5889;51.350;6.708;2024-02-04T13:36:46;11.40;99.90
11666;DHT22;5889;51.350;6.708;2024-02-04T13:39:13;11.40;99.90
11666;DHT22;5889;51.350;6.708;2024-02-04T13:41:40;11.40;99.90
11666;DHT22;5889;51.350;6.708;2024-02-04T13:44:07;11.40;99.90
11666;DHT22;5889;51.350;6.708;2024-02-04T13:46:34;11.40;99.90
11666;DHT22;5889;51.350;6.708;2024-02-04T13:49:03;11.30;99.90
11666;DHT22;5889;51.350;6.708;2024-02-04T13:51:30;11.30;99.90
11666;DHT22;5889;51.350;6.708;2024-02-04T13:53:56;11.20;99.90
11666;DHT22;5889;51.350;6.708;2024-02-04T13:56:23;11.20;99.90
11666;DHT22;5889;51.350;6.708;2024-02-04T13:58:50;11.20;99.90
11666;DHT22;5889;51.350;6.708;2024-02-04T14:01:17;11.20;99.90
11666;DHT22;5889;51.350;6.708;2024-02-04T14:03:46;11.20;99.90
11666;DHT22;5889;51.350;6.708;2024-02-04T14:06:14;11.20;99.90
11666;DHT22;5889;51.350;6.708;2024-02-04T14:08:41;11.20;99.90
11666;DHT22;5889;51.350;6.708;2024-02-04T14:11:08;11.30;99.90
11666;DHT22;5889;51.350;6.708;2024-02-04T14:13:35;11.30;99.90
11666;DHT22;5889;51.350;6.708;2024-02-04T14:16:02;11.40;99.90
11666;DHT22;5889;51.350;6.708;2024-02-04T14:18:29;11.50;99.90
11666;DHT22;5889;51.350;6.708;2024-02-04T14:20:56;11.50;99.90
11666;DHT22;5889;51.350;6.708;2024-02-04T14:23:24;11.60;99.90
11666;DHT22;5889;51.350;6.708;2024-02-04T14:25:52;11.60;99.90
11666;DHT22;5889;51.350;6.708;2024-02-04T14:28:19;11.60;99.90
11666;DHT22;5889;51.350;6.708;2024-02-04T14:30:47;11.60;99.90
11666;DHT22;5889;51.350;6.708;2024-02-04T14:33:13;11.60;99.90
11666;DHT22;5889;51.350;6.708;2024-02-04T14:35:40;11.60;99.90
11666;DHT22;5889;51.350;6.708;2024-02-04T14:38:07;11.60;99.90
11666;DHT22;5889;51.350;6.708;2024-02-04T14:40:36;11.60;99.90
11666;DHT22;5889;51.350;6.708;2024-02-04T14:43:03;11.60;99.90
11666;DHT22;5889;51.350;6.708;2024-02-04T14:45:30;11.70;99.90
11666;DHT22;5889;51.350;6.708;2024-02-04T14:47:57;11.70;99.90
11666;DHT22;5889;51.350;6.708;2024-02-04T14:50:24;11.70;99.90
11666;DHT22;5889;51.350;6.708;2024-02-04T14:52:50;11.70;99.90
11666;DHT22;5889;51.350;6.708;2024-02-04T14:55:18;11.70;99.90
11666;DHT22;5889;51.350;6.708;2024-02-04T14:57:46;11.70;99.90
11666;DHT22;5889;51.350;6.708;2024-02-04T15:00:14;11.70;99.90
11666;DHT22;5889;51.350;6.708;2024-02-04T15:02:41;11.70;99.90
11666;DHT22;5889;51.350;6.708;2024-02-04T15:05:09;11.70;99.90
11666;DHT22;5889;51.350;6.708;2024-02-04T15:07:37;11.70;99.90
11666;DHT22;5889;51.350;6.708;2024-02-04T15:10:05;11.70;99.90
11666;DHT22;5889;51.350;6.708;2024-02-04T15:12:33;11.70;99.90
11666;DHT22;5889;51.350;6.708;2024-02-04T15:15:02;11.70;99.90
11666;DHT22;5889;51.350;6.708;2024-02-04T15:17:29;11.70;99.90
11666;DHT22;5889;51.350;6.708;2024-02-04T15:19:57;11.70;99.90
11666;DHT22;5889;51.350;6.708;2024-02-04T15:22:24;11.70;99.90
11666;DHT22;5889;51.350;6.708;2024-02-04T15:24:51;11.70;99.90
11666;DHT22;5889;51.350;6.708;2024-02-04T15:27:19;11.70;99.90
11666;DHT22;5889;51.350;6.708;2024-02-04T15:29:47;11.70;99.90
11666;DHT22;5889;51.350;6.708;2024-02-04T15:32:16;11.70;99.90
11666;DHT22;5889;51.350;6.708;2024-02-04T15:34:44;11.70;99.90
11666;DHT22;5889;51.350;6.708;2024-02-04T15:37:11;11.70;99.90
11666;DHT22;5889;51.350;6.708;2024-02-04T15:39:38;11.70;99.90
11666;DHT22;5889;51.350;6.708;2024-02-04T15:42:06;11.70;99.90
11666;DHT22;5889;51.350;6.708;2024-02-04T15:44:33;11.70;99.90
11666;DHT22;5889;51.350;6.708;2024-02-04T15:47:03;11.70;99.90
11666;DHT22;5889;51.350;6.708;2024-02-04T15:49:36;11.70;99.90